Time;durP1;ratioP1;P1;durP2;ratioP2;P2;SDS_P1;SDS_P2;PMS_P1;PMS_P2;Temp;Humidity;BMP_temperature;BMP_pressure;BME280_temperature;BME280_humidity;BME280_pressure;Samples;Min_cycle;Max_cycle;Signal;HPM_P1;HPM_P2
2023/03/25 00:01:15;;;;;;;9.27;2.70;;;10.30;99.90;;;;;;5055967;28;20419;-69
2023/03/25 00:03:45;;;;;;;12.90;2.63;;;10.40;99.90;;;;;;5073632;28;20416;-69
2023/03/25 00:06:12;;;;;;;5.32;2.10;;;10.30;99.90;;;;;;5074069;28;20040;-69
2023/03/25 00:08:38;;;;;;;11.82;2.13;;;10.40;99.90;;;;;;5073962;28;20111;-69
2023/03/25 00:11:05;;;;;;;11.40;2.25;;;10.40;99.90;;;;;;5073625;28;20144;-69
2023/03/25 00:13:31;;;;;;;6.03;1.83;;;10.30;99.90;;;;;;5073756;28;20050;-69
2023/03/25 00:15:58;;;;;;;12.27;2.22;;;10.30;99.90;;;;;;5073651;28;20036;-69
2023/03/25 00:18:28;;;;;;;11.98;2.13;;;10.30;99.90;;;;;;5073497;28;20043;-69
2023/03/25 00:20:54;;;;;;;9.95;2.53;;;10.30;99.90;;;;;;5073698;28;20487;-70
2023/03/25 00:23:20;;;;;;;7.75;2.50;;;10.30;99.90;;;;;;5055719;28;20123;-70
2023/03/25 00:25:47;;;;;;;11.45;2.72;;;10.30;99.90;;;;;;5073234;28;20048;-70
2023/03/25 00:28:14;;;;;;;12.15;3.13;;;10.30;99.90;;;;;;5055537;28;20068;-70
2023/03/25 00:30:42;;;;;;;14.45;3.53;;;10.30;99.90;;;;;;5055286;28;20041;-70
2023/03/25 00:33:12;;;;;;;13.77;2.75;;;10.30;99.90;;;;;;5073328;28;20044;-69
2023/03/25 00:35:38;;;;;;;10.77;2.25;;;10.30;99.90;;;;;;5073276;28;20068;-70
2023/03/25 00:38:05;;;;;;;9.20;2.38;;;10.30;99.90;;;;;;5073161;28;20044;-69
2023/03/25 00:40:33;;;;;;;13.90;3.15;;;10.30;99.90;;;;;;5073269;28;20036;-69
2023/03/25 00:42:59;;;;;;;17.50;2.75;;;10.20;99.90;;;;;;5055291;28;20495;-69
2023/03/25 00:45:25;;;;;;;26.42;3.53;;;10.20;99.90;;;;;;5072828;28;20033;-70
2023/03/25 00:47:50;;;;;;;21.48;3.85;;;10.10;99.90;;;;;;5073124;28;20510;-69
2023/03/25 00:50:16;;;;;;;10.93;2.30;;;10.10;99.90;;;;;;5055280;28;20162;-69
2023/03/25 00:52:42;;;;;;;12.18;2.90;;;10.00;99.90;;;;;;5073065;28;20396;-69
2023/03/25 00:55:08;;;;;;;7.97;2.55;;;10.00;99.90;;;;;;5072715;28;20504;-69
2023/03/25 00:57:34;;;;;;;18.48;3.63;;;9.90;99.90;;;;;;5073077;28;20060;-69
2023/03/25 00:59:59;;;;;;;10.43;2.75;;;9.90;99.90;;;;;;5072620;28;20040;-69
2023/03/25 01:02:25;;;;;;;16.85;2.70;;;9.90;99.90;;;;;;5055188;28;20446;-69
2023/03/25 01:04:50;;;;;;;13.10;2.45;;;9.90;99.90;;;;;;5054844;28;20040;-70
2023/03/25 01:07:19;;;;;;;10.48;2.30;;;9.90;99.90;;;;;;5054320;28;20488;-70
2023/03/25 01:09:46;;;;;;;11.98;2.55;;;9.80;99.90;;;;;;5072191;28;20044;-69
2023/03/25 01:12:13;;;;;;;11.40;2.80;;;9.70;99.90;;;;;;5072709;28;20044;-69
2023/03/25 01:14:39;;;;;;;13.00;3.20;;;9.70;99.90;;;;;;5072177;28;20043;-69
2023/03/25 01:17:04;;;;;;;11.93;2.88;;;9.60;99.90;;;;;;5054511;28;20036;-69
2023/03/25 01:19:30;;;;;;;12.75;2.47;;;9.60;99.90;;;;;;5072535;28;20040;-69
2023/03/25 01:21:56;;;;;;;9.13;2.47;;;9.50;99.90;;;;;;5072474;28;20036;-70
2023/03/25 01:24:21;;;;;;;11.50;4.28;;;9.50;99.90;;;;;;5054314;28;20090;-69
2023/03/25 01:26:47;;;;;;;8.50;2.63;;;9.50;99.90;;;;;;5072381;28;20040;-70
2023/03/25 01:29:14;;;;;;;18.05;3.53;;;9.40;99.90;;;;;;5072147;28;20036;-69
2023/03/25 01:31:40;;;;;;;14.93;3.72;;;9.30;99.90;;;;;;5054236;28;20044;-70
2023/03/25 01:34:07;;;;;;;12.35;3.15;;;9.30;99.90;;;;;;5071735;28;20051;-70
2023/03/25 01:36:34;;;;;;;9.75;3.15;;;9.30;99.90;;;;;;5072003;28;20048;-70
2023/03/25 01:39:01;;;;;;;11.63;3.42;;;9.30;99.90;;;;;;5054158;28;20419;-70
2023/03/25 01:41:28;;;;;;;8.18;2.40;;;9.30;99.90;;;;;;5072133;28;20040;-70
2023/03/25 01:44:05;;;;;;;13.77;3.00;;;9.20;99.90;;;;;;5071773;28;20561;-70
2023/03/25 01:46:31;;;;;;;12.82;3.17;;;9.20;99.90;;;;;;5054164;28;20098;-70
2023/03/25 01:48:59;;;;;;;12.05;3.22;;;9.30;99.90;;;;;;5054091;28;20037;-70
2023/03/25 01:51:32;;;;;;;15.60;3.60;;;9.20;99.90;;;;;;5071934;28;20048;-70
2023/03/25 01:53:58;;;;;;;15.57;3.50;;;9.20;99.90;;;;;;5071888;28;20114;-70
2023/03/25 01:56:32;;;;;;;23.52;4.35;;;9.20;99.90;;;;;;5071703;28;20452;-70
2023/03/25 01:59:02;;;;;;;19.25;4.78;;;9.20;99.90;;;;;;5053830;28;20496;-70
2023/03/25 02:01:28;;;;;;;12.23;3.40;;;9.10;99.90;;;;;;5071764;28;20539;-70
2023/03/25 02:04:01;;;;;;;13.20;3.55;;;9.20;99.90;;;;;;5053741;28;20040;-70
2023/03/25 02:06:33;;;;;;;17.88;3.92;;;9.10;99.90;;;;;;5071668;28;20072;-70
2023/03/25 02:09:04;;;;;;;14.70;3.55;;;9.10;99.90;;;;;;5071705;28;20048;-70
2023/03/25 02:11:29;;;;;;;16.00;3.72;;;9.10;99.90;;;;;;5054018;28;20068;-71
2023/03/25 02:14:05;;;;;;;14.50;3.55;;;9.20;99.90;;;;;;5071703;28;20039;-70
2023/03/25 02:17:05;;;;;;;16.63;3.45;;;9.10;99.90;;;;;;5071815;28;20036;-70
2023/03/25 02:20:07;;;;;;;22.17;3.90;;;9.10;99.90;;;;;;5053429;28;20051;-70
2023/03/25 02:23:07;;;;;;;14.90;3.35;;;9.10;99.90;;;;;;5053755;28;20047;-70
2023/03/25 02:25:34;;;;;;;17.67;3.47;;;9.10;99.90;;;;;;5071274;28;20037;-70
2023/03/25 02:28:46;;;;;;;11.98;3.33;;;9.00;99.90;;;;;;5071713;28;20075;-70
2023/03/25 02:31:45;;;;;;;20.05;4.65;;;9.10;99.90;;;;;;4970500;28;20451;-70
2023/03/25 02:34:36;;;;;;;16.60;4.35;;;9.10;99.90;;;;;;5071324;28;20506;-69
2023/03/25 02:37:22;;;;;;;20.40;3.47;;;9.10;99.90;;;;;;5071726;28;20145;-69
2023/03/25 02:39:58;;;;;;;18.05;3.70;;;9.10;99.90;;;;;;5071195;28;20045;-70
2023/03/25 02:42:42;;;;;;;15.32;3.90;;;9.10;99.90;;;;;;5071109;28;20043;-70
2023/03/25 02:45:34;;;;;;;22.52;4.75;;;9.10;99.90;;;;;;5071057;28;20032;-70
2023/03/25 02:48:11;;;;;;;12.52;3.70;;;9.10;99.90;;;;;;5053476;28;20097;-70
2023/03/25 02:50:42;;;;;;;21.15;3.97;;;9.10;99.90;;;;;;5071174;28;20041;-70
2023/03/25 02:53:13;;;;;;;18.50;4.63;;;9.10;99.90;;;;;;5071232;28;20496;-70
2023/03/25 02:55:41;;;;;;;15.95;3.92;;;9.00;99.90;;;;;;5053418;28;20080;-69
2023/03/25 02:58:11;;;;;;;18.17;4.90;;;9.10;99.90;;;;;;5071183;28;20484;-70
2023/03/25 03:00:37;;;;;;;19.20;4.72;;;9.00;99.90;;;;;;5071249;28;20111;-70
2023/03/25 03:03:06;;;;;;;21.20;4.47;;;9.10;99.90;;;;;;5071118;28;20111;-70
2023/03/25 03:05:39;;;;;;;20.00;4.80;;;9.00;99.90;;;;;;5053166;28;20395;-70
2023/03/25 03:08:08;;;;;;;;;;;9.10;99.90;;;;;;5071776;28;20036;-70
2023/03/25 03:10:49;;;;;;;19.10;3.97;;;9.00;99.90;;;;;;5071057;28;19916;-69
2023/03/25 03:13:52;;;;;;;29.35;4.97;;;9.00;99.90;;;;;;5070988;28;20462;-70
2023/03/25 03:16:32;;;;;;;22.63;4.75;;;9.00;99.90;;;;;;5065859;28;20129;-70
2023/03/25 03:19:03;;;;;;;25.92;5.93;;;9.00;99.90;;;;;;5071063;28;20041;-70
2023/03/25 03:21:50;;;;;;;16.00;3.60;;;9.00;99.90;;;;;;5053140;28;20194;-70
2023/03/25 03:24:26;;;;;;;14.35;3.92;;;9.00;99.90;;;;;;5071033;28;20484;-70
2023/03/25 03:27:07;;;;;;;12.75;4.78;;;9.00;99.90;;;;;;5036480;28;20051;-69
2023/03/25 03:29:51;;;;;;;24.83;4.72;;;9.00;99.90;;;;;;5071028;28;20037;-69
2023/03/25 03:32:20;;;;;;;;;;;9.00;99.90;;;;;;5073752;28;20499;-69
2023/03/25 03:34:53;;;;;;;23.90;4.40;;;9.00;99.90;;;;;;5056479;28;20371;-69
2023/03/25 03:37:28;;;;;;;20.00;4.75;;;9.00;99.90;;;;;;5074624;28;20123;-70
2023/03/25 03:39:55;;;;;;;24.17;5.10;;;9.00;99.90;;;;;;5074368;28;20037;-72
2023/03/25 03:42:39;;;;;;;18.40;3.85;;;9.00;99.90;;;;;;5074340;28;20040;-72
2023/03/25 03:45:09;;;;;;;12.48;4.20;;;9.00;99.90;;;;;;5074221;28;20123;-69
2023/03/25 03:47:42;;;;;;;20.60;4.30;;;9.00;99.90;;;;;;5056174;28;20048;-69
2023/03/25 03:50:13;;;;;;;18.50;3.75;;;9.00;99.90;;;;;;5073843;28;20053;-69
2023/03/25 03:52:50;;;;;;;17.52;4.30;;;9.00;99.90;;;;;;5074218;28;20094;-69
2023/03/25 03:55:23;;;;;;;14.27;3.63;;;9.00;99.90;;;;;;5055984;28;20098;-69
2023/03/25 03:57:55;;;;;;;15.88;3.90;;;9.00;99.90;;;;;;5056272;28;20044;-69
2023/03/25 04:00:31;;;;;;;22.02;5.47;;;9.00;99.90;;;;;;5074019;28;20052;-69
2023/03/25 04:03:06;;;;;;;15.20;3.50;;;9.00;99.90;;;;;;5056379;28;20094;-70
2023/03/25 04:05:35;;;;;;;20.88;5.05;;;8.90;99.90;;;;;;5073696;28;20040;-69
2023/03/25 04:08:10;;;;;;;18.33;3.75;;;8.90;99.90;;;;;;5074149;28;20094;-69
2023/03/25 04:10:57;;;;;;;17.20;4.22;;;8.90;99.90;;;;;;5088092;22;20128;-70
2023/03/25 04:13:29;;;;;;;17.98;4.28;;;8.90;99.90;;;;;;5053433;28;20072;-70
2023/03/25 04:15:58;;;;;;;24.33;4.70;;;9.00;99.90;;;;;;5053360;28;20072;-70
2023/03/25 04:18:27;;;;;;;23.55;4.72;;;9.00;99.90;;;;;;5053165;28;20088;-70
2023/03/25 04:20:53;;;;;;;22.10;3.97;;;8.90;99.90;;;;;;5053670;28;20091;-70
2023/03/25 04:23:20;;;;;;;18.15;3.90;;;8.90;99.90;;;;;;5053628;28;20073;-70
2023/03/25 04:25:48;;;;;;;21.25;4.20;;;8.90;99.90;;;;;;5035450;28;20045;-70
2023/03/25 04:28:16;;;;;;;19.55;4.38;;;8.90;99.90;;;;;;5053476;28;20115;-70
2023/03/25 04:30:44;;;;;;;16.13;3.72;;;9.00;99.90;;;;;;5053082;28;20073;-70
2023/03/25 04:33:10;;;;;;;12.88;3.65;;;9.00;99.90;;;;;;5053539;28;20094;-70
2023/03/25 04:35:36;;;;;;;21.80;4.88;;;8.90;99.90;;;;;;5035465;28;20033;-70
2023/03/25 04:38:02;;;;;;;17.38;4.35;;;9.00;99.90;;;;;;5053422;28;20112;-70
2023/03/25 04:40:28;;;;;;;13.38;3.70;;;8.90;99.90;;;;;;5053238;28;20037;-70
2023/03/25 04:42:55;;;;;;;18.70;5.32;;;8.90;99.90;;;;;;5053128;28;20087;-69
2023/03/25 04:45:21;;;;;;;17.70;4.22;;;8.90;99.90;;;;;;5052923;28;20071;-69
2023/03/25 04:47:48;;;;;;;18.27;4.93;;;8.90;99.90;;;;;;5053338;28;20037;-69
2023/03/25 04:50:19;;;;;;;18.02;3.97;;;8.90;99.90;;;;;;5053049;28;20044;-69
2023/03/25 04:52:45;;;;;;;17.15;4.32;;;9.00;99.90;;;;;;5053148;28;20079;-70
2023/03/25 04:55:16;;;;;;;24.58;5.57;;;8.90;99.90;;;;;;5052798;28;20044;-70
2023/03/25 04:57:44;;;;;;;18.88;4.40;;;8.90;99.90;;;;;;5052905;28;20045;-69
2023/03/25 05:00:12;;;;;;;23.42;5.50;;;8.90;99.90;;;;;;5052952;28;20045;-69
2023/03/25 05:02:44;;;;;;;23.15;5.32;;;8.80;99.90;;;;;;5052980;28;20048;-69
2023/03/25 05:05:17;;;;;;;18.67;5.20;;;8.80;99.90;;;;;;5052699;28;20029;-70
2023/03/25 05:07:48;;;;;;;18.98;7.07;;;8.80;99.90;;;;;;5052844;28;20321;-69
2023/03/25 05:10:14;;;;;;;18.45;4.20;;;8.80;99.90;;;;;;5052459;28;20037;-70
2023/03/25 05:12:40;;;;;;;19.55;5.20;;;8.80;99.90;;;;;;5034701;28;20076;-69
2023/03/25 05:15:07;;;;;;;19.63;5.53;;;8.80;99.90;;;;;;5052543;28;20057;-69
2023/03/25 05:17:33;;;;;;;20.42;5.80;;;8.80;99.90;;;;;;5052501;28;20451;-69
2023/03/25 05:19:58;;;;;;;25.90;5.50;;;8.80;99.90;;;;;;5034615;28;20045;-70
2023/03/25 05:22:24;;;;;;;15.05;5.85;;;8.70;99.90;;;;;;5052455;28;20037;-69
2023/03/25 05:24:52;;;;;;;18.42;5.20;;;8.80;99.90;;;;;;5052030;28;20455;-69
2023/03/25 05:27:19;;;;;;;21.45;5.75;;;8.70;99.90;;;;;;5052414;28;20045;-70
2023/03/25 05:29:45;;;;;;;25.95;5.68;;;8.70;99.90;;;;;;5034443;28;20044;-69
2023/03/25 05:32:12;;;;;;;21.27;5.22;;;8.70;99.90;;;;;;5034298;28;20098;-70
2023/03/25 05:34:38;;;;;;;18.63;5.45;;;8.70;99.90;;;;;;5052037;28;20045;-71
2023/03/25 05:37:06;;;;;;;15.23;5.25;;;8.70;99.90;;;;;;5051024;28;20059;-71
2023/03/25 05:39:32;;;;;;;25.90;6.13;;;8.70;99.90;;;;;;5034399;28;20049;-71
2023/03/25 05:42:02;;;;;;;24.10;5.38;;;8.70;99.90;;;;;;5052150;28;20086;-71
2023/03/25 05:44:27;;;;;;;25.25;5.15;;;8.80;99.90;;;;;;5051708;28;20120;-71
2023/03/25 05:46:53;;;;;;;26.98;6.03;;;8.70;99.90;;;;;;5052086;28;20114;-71
2023/03/25 05:49:20;;;;;;;21.40;4.57;;;8.80;99.90;;;;;;5052061;28;20052;-71
2023/03/25 05:51:48;;;;;;;17.08;5.18;;;8.80;99.90;;;;;;5034031;28;20048;-71
2023/03/25 05:54:14;;;;;;;24.20;5.70;;;8.80;99.90;;;;;;5051116;28;20492;-71
2023/03/25 05:56:41;;;;;;;18.17;4.43;;;8.80;99.90;;;;;;5052105;28;20392;-71
2023/03/25 05:59:07;;;;;;;28.77;4.85;;;8.80;99.90;;;;;;5051776;28;20052;-71
2023/03/25 06:01:36;;;;;;;23.95;5.63;;;8.90;99.90;;;;;;5051767;28;20048;-70
2023/03/25 06:04:02;;;;;;;28.83;6.72;;;8.90;99.90;;;;;;5033730;28;20037;-70
2023/03/25 06:06:29;;;;;;;20.55;4.93;;;8.80;99.90;;;;;;5051561;28;20037;-70
2023/03/25 06:08:54;;;;;;;31.23;5.35;;;8.80;99.90;;;;;;5051746;28;20095;-71
2023/03/25 06:11:20;;;;;;;26.08;5.97;;;8.80;99.90;;;;;;5051574;28;20045;-70
2023/03/25 06:13:50;;;;;;;24.40;5.05;;;8.80;99.90;;;;;;5051597;28;20047;-71
2023/03/25 06:16:19;;;;;;;30.17;5.30;;;8.90;99.90;;;;;;5051686;28;20033;-70
2023/03/25 06:18:55;;;;;;;30.40;5.47;;;8.90;99.90;;;;;;5051560;28;20117;-71
2023/03/25 06:21:21;;;;;;;34.00;5.60;;;8.90;99.90;;;;;;5051564;28;20125;-70
2023/03/25 06:23:48;;;;;;;24.10;5.60;;;8.90;99.90;;;;;;5051528;28;20091;-70
2023/03/25 06:26:15;;;;;;;27.60;5.50;;;8.90;99.90;;;;;;5051357;28;20557;-71
2023/03/25 06:28:41;;;;;;;27.70;5.50;;;8.90;99.90;;;;;;5051600;28;20099;-71
2023/03/25 06:31:15;;;;;;;25.17;5.10;;;8.90;99.90;;;;;;5051427;28;20411;-70
2023/03/25 06:33:45;;;;;;;24.08;4.80;;;8.90;99.90;;;;;;5051292;28;20504;-71
2023/03/25 06:36:12;;;;;;;23.77;5.40;;;8.90;99.90;;;;;;5051314;28;20097;-71
2023/03/25 06:38:38;;;;;;;19.10;4.22;;;8.90;99.90;;;;;;5051544;28;20041;-71
2023/03/25 06:41:06;;;;;;;27.10;5.20;;;8.90;99.90;;;;;;5051371;28;20037;-71
2023/03/25 06:43:31;;;;;;;21.10;4.20;;;8.90;99.90;;;;;;5051274;28;20108;-70
2023/03/25 06:45:57;;;;;;;33.63;5.53;;;8.90;99.90;;;;;;5051125;28;20091;-70
2023/03/25 06:48:23;;;;;;;29.70;7.35;;;8.80;99.90;;;;;;5033474;28;20560;-71
2023/03/25 06:50:48;;;;;;;28.02;4.88;;;8.80;99.90;;;;;;5051188;28;20036;-70
2023/03/25 06:53:14;;;;;;;30.05;4.50;;;8.90;99.90;;;;;;5051359;28;20119;-70
2023/03/25 06:55:40;;;;;;;32.13;5.20;;;8.80;99.90;;;;;;5051102;28;20123;-70
2023/03/25 06:58:05;;;;;;;17.30;3.83;;;8.80;99.90;;;;;;5051312;28;20136;-70
2023/03/25 07:00:31;;;;;;;19.02;3.90;;;8.80;99.90;;;;;;5050963;28;20567;-71
2023/03/25 07:03:00;;;;;;;19.73;4.50;;;8.80;99.90;;;;;;5051358;28;20110;-71
2023/03/25 07:05:26;;;;;;;22.75;4.90;;;8.80;99.90;;;;;;5050878;28;20036;-71
2023/03/25 07:07:51;;;;;;;25.25;4.93;;;8.90;99.90;;;;;;5054630;28;20397;-70
2023/03/25 07:10:17;;;;;;;36.97;5.50;;;8.80;99.90;;;;;;5054850;28;20072;-70
2023/03/25 07:12:43;;;;;;;17.92;5.07;;;8.90;99.90;;;;;;5037050;28;20056;-69
2023/03/25 07:15:09;;;;;;;20.02;4.10;;;8.90;99.90;;;;;;5054375;28;20083;-69
2023/03/25 07:17:34;;;;;;;20.98;4.00;;;8.90;99.90;;;;;;5054790;28;20504;-69
2023/03/25 07:20:00;;;;;;;24.75;4.15;;;8.90;99.90;;;;;;5054664;28;20076;-70
2023/03/25 07:22:25;;;;;;;17.58;4.93;;;8.90;99.90;;;;;;5054880;28;20123;-69
2023/03/25 07:24:51;;;;;;;23.40;4.60;;;9.00;99.90;;;;;;5054612;28;20045;-70
2023/03/25 07:27:17;;;;;;;25.77;5.68;;;9.10;99.90;;;;;;5054730;28;20040;-70
2023/03/25 07:29:43;;;;;;;24.15;4.15;;;9.40;99.90;;;;;;5054424;28;20060;-70
2023/03/25 07:32:08;;;;;;;23.48;4.38;;;9.50;99.90;;;;;;5054823;28;20512;-70
2023/03/25 07:34:34;;;;;;;23.25;5.72;;;9.50;99.90;;;;;;5054445;28;20048;-70
2023/03/25 07:37:00;;;;;;;18.90;3.25;;;9.50;99.90;;;;;;5054610;28;20090;-70
2023/03/25 07:39:25;;;;;;;22.10;4.82;;;9.40;99.90;;;;;;5054636;28;20056;-70
2023/03/25 07:41:51;;;;;;;19.67;3.65;;;9.20;99.90;;;;;;5054136;28;20040;-70
2023/03/25 07:44:20;;;;;;;30.25;4.88;;;9.20;99.90;;;;;;5053919;28;20068;-70
2023/03/25 07:46:47;;;;;;;21.27;3.67;;;9.20;99.90;;;;;;5054231;28;20581;-69
2023/03/25 07:49:13;;;;;;;32.00;4.95;;;9.20;99.90;;;;;;5054474;28;20067;-69
2023/03/25 07:51:38;;;;;;;23.67;4.32;;;9.20;99.90;;;;;;5054348;28;20457;-70
2023/03/25 07:54:04;;;;;;;17.75;3.85;;;9.20;99.90;;;;;;5054006;28;20112;-70
2023/03/25 07:56:30;;;;;;;25.95;3.85;;;9.20;99.90;;;;;;5054213;28;20043;-70
2023/03/25 07:58:55;;;;;;;16.50;3.35;;;9.10;99.90;;;;;;5053900;28;20079;-71
2023/03/25 08:01:21;;;;;;;16.17;3.90;;;9.10;99.90;;;;;;5053938;28;20091;-70
2023/03/25 08:03:46;;;;;;;13.35;3.28;;;9.00;99.90;;;;;;5054125;28;20040;-70
2023/03/25 08:06:12;;;;;;;17.33;4.57;;;8.90;99.90;;;;;;5036088;28;20492;-71
2023/03/25 08:08:38;;;;;;;19.85;4.10;;;8.90;99.90;;;;;;5053961;28;20037;-71
2023/03/25 08:11:03;;;;;;;26.02;5.43;;;8.90;99.90;;;;;;5053708;28;20068;-71
2023/03/25 08:13:29;;;;;;;20.00;4.05;;;8.90;99.90;;;;;;5047820;28;20053;-71
2023/03/25 08:15:55;;;;;;;19.38;4.55;;;8.90;99.90;;;;;;5046129;28;20437;-71
2023/03/25 08:18:23;;;;;;;26.05;4.80;;;8.90;99.90;;;;;;5053276;28;20120;-71
2023/03/25 08:20:52;;;;;;;15.80;3.47;;;8.90;99.90;;;;;;5053545;28;20040;-71
2023/03/25 08:23:18;;;;;;;18.50;3.90;;;8.90;99.90;;;;;;5053533;28;20065;-70
2023/03/25 08:25:49;;;;;;;23.25;5.45;;;8.90;99.90;;;;;;5053267;28;20041;-71
2023/03/25 08:28:20;;;;;;;17.83;4.35;;;8.90;99.90;;;;;;5053315;28;20041;-70
2023/03/25 08:30:48;;;;;;;13.50;3.53;;;8.90;99.90;;;;;;5053500;28;20075;-70
2023/03/25 08:33:15;;;;;;;19.17;3.95;;;8.90;99.90;;;;;;5053498;28;20045;-70
2023/03/25 08:35:41;;;;;;;18.73;4.18;;;8.90;99.90;;;;;;5052835;28;20052;-70
2023/03/25 08:38:07;;;;;;;11.35;3.50;;;9.00;99.90;;;;;;5052840;28;20041;-70
2023/03/25 08:40:34;;;;;;;19.00;4.70;;;9.00;99.90;;;;;;5052929;28;20041;-71
2023/03/25 08:43:03;;;;;;;13.73;3.85;;;9.10;99.90;;;;;;5053004;28;20420;-70
2023/03/25 08:45:31;;;;;;;15.07;4.57;;;9.10;99.90;;;;;;5052961;28;20040;-70
2023/03/25 08:47:57;;;;;;;20.13;5.00;;;9.10;99.90;;;;;;5052983;28;20412;-70
2023/03/25 08:50:22;;;;;;;20.90;4.82;;;9.20;99.90;;;;;;5052905;28;20033;-70
2023/03/25 08:52:48;;;;;;;17.92;4.75;;;9.20;99.90;;;;;;5053168;28;20041;-70
2023/03/25 08:55:15;;;;;;;15.57;4.30;;;9.30;99.90;;;;;;5052646;28;20079;-70
2023/03/25 08:57:41;;;;;;;21.02;4.32;;;9.50;99.90;;;;;;5035144;28;20535;-70
2023/03/25 09:00:13;;;;;;;17.60;3.40;;;9.60;99.90;;;;;;5052817;28;20404;-70
2023/03/25 09:02:40;;;;;;;23.58;5.13;;;9.60;99.90;;;;;;5051466;28;20412;-70
2023/03/25 09:05:07;;;;;;;20.65;4.38;;;9.60;99.90;;;;;;5052136;28;20033;-70
2023/03/25 09:07:33;;;;;;;24.35;5.57;;;9.60;99.90;;;;;;5052039;28;20098;-70
2023/03/25 09:09:58;;;;;;;20.45;4.97;;;9.70;99.90;;;;;;5052480;28;20123;-70
2023/03/25 09:12:24;;;;;;;20.13;4.65;;;9.70;99.90;;;;;;5052455;28;20458;-70
2023/03/25 09:14:50;;;;;;;27.23;5.55;;;9.80;99.90;;;;;;5034387;28;20037;-70
2023/03/25 09:17:15;;;;;;;19.92;4.95;;;9.80;99.90;;;;;;5044264;28;20428;-70
2023/03/25 09:19:41;;;;;;;28.98;7.30;;;9.90;99.90;;;;;;5034639;28;20078;-71
2023/03/25 09:22:07;;;;;;;26.95;6.15;;;9.90;99.90;;;;;;5052446;28;20048;-71
2023/03/25 09:24:32;;;;;;;18.55;4.93;;;9.90;99.90;;;;;;5052074;28;20048;-71
2023/03/25 09:27:00;;;;;;;15.60;3.88;;;10.00;99.90;;;;;;5052518;28;20029;-71
2023/03/25 09:29:26;;;;;;;17.15;4.93;;;10.00;99.90;;;;;;5051783;28;20047;-72
2023/03/25 09:31:51;;;;;;;23.20;4.65;;;10.10;99.90;;;;;;5052375;28;20056;-71
2023/03/25 09:34:17;;;;;;;19.70;4.93;;;10.20;99.90;;;;;;5034326;28;20041;-72
2023/03/25 09:36:44;;;;;;;21.23;5.25;;;10.30;99.90;;;;;;5052305;28;20105;-72
2023/03/25 09:39:10;;;;;;;23.13;4.45;;;10.20;99.90;;;;;;5052326;28;20048;-71
2023/03/25 09:41:59;;;;;;;27.45;4.32;;;10.30;99.90;;;;;;5052230;28;20037;-71
2023/03/25 09:44:29;;;;;;;18.02;5.07;;;10.30;99.90;;;;;;5051961;28;20064;-71
2023/03/25 09:46:57;;;;;;;12.90;3.25;;;10.30;99.90;;;;;;5051741;28;20036;-74
2023/03/25 09:49:30;;;;;;;21.00;4.05;;;10.40;99.90;;;;;;5051515;28;20047;-74
2023/03/25 09:51:59;;;;;;;15.82;3.63;;;10.60;99.90;;;;;;5034101;28;20056;-73
2023/03/25 09:54:34;;;;;;;13.40;3.70;;;10.80;99.90;;;;;;5034000;28;20040;-73
2023/03/25 09:57:06;;;;;;;19.38;3.47;;;10.80;99.90;;;;;;5051987;28;20051;-73
2023/03/25 09:59:47;;;;;;;21.13;4.18;;;10.70;99.90;;;;;;5034081;28;20041;-74
2023/03/25 10:02:34;;;;;;;11.73;2.88;;;10.60;99.90;;;;;;5051998;28;20048;-74
2023/03/25 10:05:31;;;;;;;9.10;1.65;;;10.40;99.90;;;;;;5033635;28;20069;-74
2023/03/25 10:08:18;;;;;;;13.88;2.33;;;10.00;99.90;;;;;;5033876;28;20079;-74
2023/03/25 10:10:51;;;;;;;6.47;1.65;;;9.70;99.90;;;;;;5056518;22;20091;-71
2023/03/25 10:13:51;;;;;;;13.90;2.38;;;9.40;99.90;;;;;;5033593;28;20065;-72
2023/03/25 10:16:38;;;;;;;15.98;3.08;;;9.30;99.90;;;;;;5050599;28;20060;-73
2023/03/25 10:19:23;;;;;;;15.40;3.17;;;9.40;99.90;;;;;;5032938;28;20033;-72
2023/03/25 10:22:23;;;;;;;14.38;3.78;;;9.60;99.90;;;;;;5051558;28;20045;-72
2023/03/25 10:24:54;;;;;;;11.60;2.65;;;9.60;99.90;;;;;;5050443;28;20099;-72
2023/03/25 10:27:44;;;;;;;17.73;3.30;;;9.50;99.90;;;;;;5051390;28;20512;-72
2023/03/25 10:30:38;;;;;;;21.85;3.85;;;9.60;99.90;;;;;;5033750;28;20055;-73
2023/03/25 10:33:14;;;;;;;18.50;3.72;;;9.80;99.90;;;;;;5027194;28;20045;-72
2023/03/25 10:35:46;;;;;;;20.60;4.35;;;9.90;99.90;;;;;;5051035;28;20041;-72
2023/03/25 10:38:19;;;;;;;18.90;3.67;;;10.00;99.90;;;;;;5033466;28;20045;-73
2023/03/25 10:40:49;;;;;;;;;;;10.00;99.90;;;;;;5053596;28;20049;-73
2023/03/25 10:43:22;;;;;;;15.73;2.70;;;9.80;99.90;;;;;;5055331;28;19916;-73
2023/03/25 10:45:48;;;;;;;;;;;9.80;99.90;;;;;;5055599;28;20040;-72
2023/03/25 10:48:25;;;;;;;19.75;3.58;;;9.80;99.90;;;;;;5037432;28;19967;-73
2023/03/25 10:51:07;;;;;;;20.70;3.63;;;9.80;99.90;;;;;;5037134;28;20049;-73
2023/03/25 10:53:33;;;;;;;16.80;3.40;;;10.00;99.90;;;;;;5054961;28;20045;-73
2023/03/25 10:56:04;;;;;;;27.10;4.55;;;10.00;99.90;;;;;;5037182;28;20098;-72
2023/03/25 10:58:31;;;;;;;17.90;4.35;;;10.10;99.90;;;;;;5055195;28;20087;-72
2023/03/25 11:01:00;;;;;;;17.88;3.78;;;10.00;99.90;;;;;;5054995;28;20041;-72
2023/03/25 11:03:31;;;;;;;16.42;3.30;;;10.00;99.90;;;;;;5037300;28;20037;-73
2023/03/25 11:05:57;;;;;;;18.20;3.47;;;10.10;99.90;;;;;;5054766;28;20397;-72
2023/03/25 11:08:24;;;;;;;24.85;4.53;;;10.10;99.90;;;;;;5037288;28;20041;-73
2023/03/25 11:10:55;;;;;;;17.58;3.35;;;10.10;99.90;;;;;;5037134;28;20048;-73
2023/03/25 11:13:26;;;;;;;18.63;3.45;;;10.00;99.90;;;;;;5055124;28;20037;-72
2023/03/25 11:16:01;;;;;;;14.90;3.72;;;10.00;99.90;;;;;;5036948;28;20045;-73
2023/03/25 11:18:40;;;;;;;22.58;3.95;;;10.00;99.90;;;;;;5036896;28;20504;-72
2023/03/25 11:21:12;;;;;;;13.40;3.67;;;10.00;99.90;;;;;;5054635;28;20555;-73
2023/03/25 11:23:50;;;;;;;20.30;4.75;;;10.00;99.90;;;;;;5036657;28;20037;-73
2023/03/25 11:26:25;;;;;;;21.42;4.20;;;10.00;99.90;;;;;;5054774;28;20120;-73
2023/03/25 11:28:59;;;;;;;28.33;4.35;;;10.10;99.90;;;;;;5036849;28;20056;-73
2023/03/25 11:31:28;;;;;;;20.63;3.75;;;10.10;99.90;;;;;;5020279;28;20045;-73
2023/03/25 11:34:09;;;;;;;19.45;3.80;;;10.20;99.90;;;;;;5020239;28;20037;-73
2023/03/25 11:36:54;;;;;;;12.40;2.78;;;10.30;99.90;;;;;;5036859;28;20053;-73
2023/03/25 11:39:32;;;;;;;16.70;3.20;;;10.40;99.90;;;;;;5020165;28;20462;-73
2023/03/25 11:41:58;;;;;;;28.08;5.65;;;10.40;99.90;;;;;;5036442;28;20442;-73
2023/03/25 11:44:32;;;;;;;14.90;3.67;;;10.40;99.90;;;;;;5036180;28;20488;-73
2023/03/25 11:47:01;;;;;;;21.63;3.50;;;10.40;99.90;;;;;;5036310;28;20048;-73
2023/03/25 11:49:33;;;;;;;16.92;3.53;;;10.60;99.90;;;;;;5036554;28;20072;-73
2023/03/25 11:52:02;;;;;;;19.02;4.38;;;10.60;99.90;;;;;;5035433;28;20060;-72
2023/03/25 11:54:28;;;;;;;18.63;3.97;;;10.50;99.90;;;;;;5035695;28;20045;-72
2023/03/25 11:56:55;;;;;;;14.35;3.15;;;10.60;99.90;;;;;;5036229;28;20049;-72
2023/03/25 11:59:25;;;;;;;18.25;4.07;;;10.50;99.90;;;;;;5036088;28;20049;-71
2023/03/25 12:02:01;;;;;;;12.55;3.03;;;10.40;99.90;;;;;;5036215;28;20472;-72
2023/03/25 12:04:27;;;;;;;17.10;4.07;;;10.40;99.90;;;;;;5035729;28;20504;-71
2023/03/25 12:06:59;;;;;;;14.15;3.10;;;10.30;99.90;;;;;;5053823;28;20055;-71
2023/03/25 12:09:27;;;;;;;13.15;3.33;;;10.20;99.90;;;;;;5036024;28;20033;-71
2023/03/25 12:12:03;;;;;;;14.95;4.18;;;10.30;99.90;;;;;;5035788;28;20720;-71
2023/03/25 12:14:40;;;;;;;13.18;3.42;;;10.30;99.90;;;;;;5035890;28;20067;-71
2023/03/25 12:17:21;;;;;;;16.67;3.75;;;10.30;99.90;;;;;;5036074;28;20049;-71
2023/03/25 12:20:10;;;;;;;16.02;2.88;;;10.30;99.90;;;;;;5035796;28;20041;-71
2023/03/25 12:22:50;;;;;;;10.13;2.90;;;10.30;99.90;;;;;;5035665;28;20492;-71
2023/03/25 12:25:35;;;;;;;15.38;3.28;;;10.40;99.90;;;;;;5035464;28;20041;-71
2023/03/25 12:28:06;;;;;;;12.60;2.22;;;10.50;99.90;;;;;;5035556;28;20075;-71
2023/03/25 12:30:57;;;;;;;13.25;3.13;;;10.50;99.90;;;;;;5035680;28;20077;-71
2023/03/25 12:33:52;;;;;;;19.30;2.80;;;10.50;99.90;;;;;;5035568;28;20040;-71
2023/03/25 12:36:41;;;;;;;13.43;3.25;;;10.50;99.90;;;;;;5035577;28;20484;-71
2023/03/25 12:39:19;;;;;;;8.52;2.28;;;10.50;99.90;;;;;;5035484;28;20048;-71
2023/03/25 12:42:32;;;;;;;15.57;2.88;;;10.60;99.90;;;;;;5035291;28;20451;-71
2023/03/25 12:45:22;;;;;;;9.73;2.58;;;10.60;99.90;;;;;;5035414;28;20382;-71
2023/03/25 12:47:58;;;;;;;14.25;2.92;;;10.60;99.90;;;;;;5053176;28;20056;-71
2023/03/25 12:50:52;;;;;;;11.02;2.25;;;10.80;99.90;;;;;;5035148;28;20123;-71
2023/03/25 12:53:23;;;;;;;13.25;2.42;;;10.90;99.90;;;;;;5029555;28;20052;-71
2023/03/25 12:56:04;;;;;;;10.75;2.05;;;11.00;99.90;;;;;;5034840;28;20533;-71
2023/03/25 12:58:51;;;;;;;11.27;2.53;;;11.00;99.90;;;;;;5018475;28;20037;-72
2023/03/25 13:01:36;;;;;;;9.85;3.17;;;11.10;99.90;;;;;;5035331;28;20041;-71
2023/03/25 13:04:23;;;;;;;9.95;1.80;;;11.20;99.90;;;;;;5018396;28;20413;-71
2023/03/25 13:07:12;;;;;;;10.70;2.92;;;11.10;99.90;;;;;;5034803;28;20080;-71